Denison Municipal Airport
Tuesday 1:55 PM
Weather Mostly Sunny
VFR
Temperature 86°
Dew Point 79°
Feels Like 99°
Relative Humidity 79
%
Visibility 9
mi
Pressure 1006.8
mb
Wind Direction SSW
Wind Speed 31
mph
Last Hour Precip 0.00
"
KDNS 181855Z AUTO 20027G38KT 9SM FEW034 FEW040 30/26 A2973 RMK AO2

Recent Observations

Time Present Weather Temp DP Feels RH% Vsby Pressure Ceiling Direction Speed Gust 1h Precip
1:55PM
VFR
86° 79° 99° 79
%
9
mi
1006.8
mb
None SSW 31
mph
44
mph
0.00"
KDNS 181855Z AUTO 20027G38KT 9SM FEW034 FEW040 30/26 A2973 RMK AO2
1:35PM
VFR
86° 79° 99° 79
%
9
mi
1006.4
mb
None SSW 28
mph
44
mph
0.00"
KDNS 181835Z AUTO 20024G38KT 9SM FEW033 30/26 A2972 RMK AO2
1:15PM
VFR
86° 79° 99° 79
%
9
mi
1006.4
mb
None S 29
mph
40
mph
0.00"
KDNS 181815Z AUTO 18025G35KT 9SM FEW033 30/26 A2972 RMK AO2
12:55PM
VFR
84° 79° 96° 84
%
9
mi
1006.1
mb
None S 32
mph
45
mph
0.00"
KDNS 181755Z AUTO 18028G39KT 9SM FEW028 29/26 A2971 RMK AO2
12:35PM
VFR
84° 79° 96° 84
%
9
mi
1006.1
mb
None S 33
mph
45
mph
0.00"
KDNS 181735Z AUTO 19029G39KT 9SM SCT027 29/26 A2971 RMK AO2
12:15PM
VFR
82° 79° 93° 89
%
9
mi
1006.1
mb
None S 31
mph
43
mph
0.00"
KDNS 181715Z AUTO 18027G37KT 9SM SCT026 28/26 A2971 RMK AO2
11:55AM
VFR
82° 81° 95° 94
%
9
mi
1005.8
mb
None S 31
mph
46
mph
0.00"
KDNS 181655Z AUTO 19027G40KT 9SM CLR 28/27 A2970 RMK AO2
11:35AM
VFR
82° 79° 93° 89
%
10
mi
1005.8
mb
None S 31
mph
41
mph
0.00"
KDNS 181635Z AUTO 18027G36KT 10SM CLR 28/26 A2970 RMK AO2
11:15AM
VFR
81° 81° 91° 100
%
9
mi
1005.8
mb
None S 25
mph
44
mph
0.00"
KDNS 181615Z AUTO 19022G38KT 9SM CLR 27/27 A2970 RMK AO2
10:55AM
VFR
79° 79° 79° 100
%
9
mi
1005.8
mb
None S 32
mph
41
mph
0.00"
KDNS 181555Z AUTO 19028G36KT 9SM FEW030 SCT046 26/26 A2970 RMK AO2
10:35AM
VFR
81° 79° 89° 94
%
10
mi
1006.1
mb
3200
ft
S 26
mph
36
mph
0.00"
KDNS 181535Z AUTO 18023G31KT 10SM BKN032 27/26 A2971 RMK AO2
10:15AM
VFR
79° 79° 79° 100
%
9
mi
1006.1
mb
3300
ft
S 24
mph
37
mph
0.00"
KDNS 181515Z AUTO 18021G32KT 9SM FEW025 BKN033 BKN038 26/26 A2971 RMK AO2
9:55AM
MVFR
79° 79° 79° 100
%
9
mi
1006.4
mb
2600
ft
S 21
mph
33
mph
0.00"
KDNS 181455Z AUTO 19018G29KT 9SM BKN026 BKN031 OVC036 26/26 A2972 RMK AO2
9:35AM
MVFR
79° 79° 79° 100
%
9
mi
1006.1
mb
2600
ft
SSW 26
mph
37
mph
0.00"
KDNS 181435Z AUTO 20023G32KT 9SM BKN026 OVC033 26/26 A2971 RMK AO2
9:15AM
MVFR
79° 79° 79° 100
%
9
mi
1005.8
mb
2500
ft
S 25
mph
40
mph
0.00"
KDNS 181415Z AUTO 18022G35KT 9SM BKN025 OVC031 26/26 A2970 RMK AO2
8:55AM
MVFR
79° 79° 79° 100
%
9
mi
1005.1
mb
2400
ft
S 26
mph
43
mph
0.00"
KDNS 181355Z AUTO 18023G37KT 9SM BKN024 OVC030 26/26 A2968 RMK AO2
8:35AM
MVFR
79° 79° 79° 100
%
9
mi
1005.4
mb
2500
ft
S 24
mph
35
mph
0.00"
KDNS 181335Z AUTO 18021G30KT 9SM BKN025 26/26 A2969 RMK AO2
8:15AM
MVFR
79° 79° 79° 100
%
9
mi
1005.1
mb
2600
ft
S 28
mph
38
mph
0.00"
KDNS 181315Z AUTO 18024G33KT 9SM BKN026 BKN034 26/26 A2968 RMK AO2
7:55AM
VFR
79° 79° 79° 100
%
9
mi
1004.7
mb
None S 28
mph
38
mph
0.00"
KDNS 181255Z AUTO 18024G33KT 9SM FEW028 FEW034 26/26 A2967 RMK AO2
7:35AM
VFR
77° 77° 77° 100
%
9
mi
1005.1
mb
None S 26
mph
40
mph
0.00"
KDNS 181235Z AUTO 19023G35KT 9SM CLR 25/25 A2968 RMK AO2
Click here to show this page without METARs/TAFs included